Time;durP1;ratioP1;P1;durP2;ratioP2;P2;SDS_P1;SDS_P2;PMS_P1;PMS_P2;Temp;Humidity;BMP_temperature;BMP_pressure;BME280_temperature;BME280_humidity;BME280_pressure;Samples;Min_cycle;Max_cycle;Signal;HPM_P1;HPM_P2
2021/07/13 03:35:00;;;;;;;0.50;0.50;;;;;;;18.24;81.18;92012.78;6272302;22;20027;-78
2021/07/13 03:37:26;;;;;;;0.30;0.30;;;;;;;18.19;80.86;92007.72;6273109;22;20035;-77
2021/07/13 03:39:52;;;;;;;0.57;0.55;;;;;;;18.08;81.01;92008.25;6245852;22;20004;-77
2021/07/13 03:42:19;;;;;;;1.15;0.88;;;;;;;18.04;80.22;92015.34;6240533;22;20008;-77
2021/07/13 03:44:45;;;;;;;0.43;0.43;;;;;;;17.98;80.82;92014.06;6191031;23;20016;-77
2021/07/13 03:47:13;;;;;;;0.30;0.30;;;;;;;17.94;81.77;92013.22;6215180;23;20026;-78
2021/07/13 03:49:40;;;;;;;0.82;0.65;;;;;;;17.89;81.77;91994.94;6242126;23;20024;-77
2021/07/13 03:52:06;;;;;;;0.22;0.22;;;;;;;17.81;82.70;91985.25;6240984;23;20028;-77
2021/07/13 03:54:31;;;;;;;0.73;0.60;;;;;;;17.78;82.65;91986.72;6240050;23;20020;-77
2021/07/13 03:56:57;;;;;;;0.40;0.40;;;;;;;17.74;82.32;91979.81;6215837;23;20004;-77
2021/07/13 03:59:23;;;;;;;1.13;0.90;;;;;;;17.71;82.64;91977.84;6241899;23;20012;-77
2021/07/13 04:01:49;;;;;;;0.28;0.28;;;;;;;17.71;82.63;91975.19;6241672;23;20016;-78
2021/07/13 04:04:14;;;;;;;0.85;0.80;;;;;;;17.68;82.48;91972.13;6216187;23;20047;-77
2021/07/13 04:06:40;;;;;;;0.40;0.40;;;;;;;17.65;83.26;91967.53;6214768;23;20062;-78
2021/07/13 04:09:07;;;;;;;1.00;0.75;;;;;;;17.61;82.87;91974.59;6215262;23;20020;-78
2021/07/13 04:11:33;;;;;;;0.60;0.60;;;;;;;17.61;83.63;91977.25;6215585;23;20019;-77
2021/07/13 04:13:59;;;;;;;1.00;0.73;;;;;;;17.64;83.52;91975.81;6241931;23;20012;-77
2021/07/13 04:16:24;;;;;;;0.75;0.47;;;;;;;17.71;84.38;91983.16;6242165;23;20087;-78
2021/07/13 04:18:50;;;;;;;0.57;0.55;;;;;;;17.78;84.57;91972.72;6241840;23;20015;-77
2021/07/13 04:21:16;;;;;;;0.45;0.45;;;;;;;17.76;84.04;91970.41;6241889;23;20019;-77
2021/07/13 04:23:41;;;;;;;1.25;1.08;;;;;;;17.79;83.36;91956.50;6214854;23;20082;-77
2021/07/13 04:26:07;;;;;;;0.80;0.73;;;;;;;17.79;83.05;91955.75;6241706;23;20451;-77
2021/07/13 04:28:33;;;;;;;0.77;0.70;;;;;;;17.77;84.08;91950.78;6214893;23;20004;-77
2021/07/13 04:31:00;;;;;;;0.73;0.73;;;;;;;17.79;83.24;91934.56;6241331;23;20387;-77
2021/07/13 04:33:26;;;;;;;0.50;0.50;;;;;;;17.81;82.49;91933.13;6214234;23;20078;-77
2021/07/13 04:35:52;;;;;;;1.10;1.00;;;;;;;17.83;84.50;91920.31;6240180;23;20026;-77
2021/07/13 04:38:18;;;;;;;0.80;0.63;;;;;;;17.87;84.35;91918.50;6240682;23;20040;-78
2021/07/13 04:40:45;;;;;;;0.52;0.40;;;;;;;17.81;85.34;91914.59;6240187;23;20047;-77
2021/07/13 04:43:10;;;;;;;0.38;0.38;;;;;;;17.69;83.75;91926.00;6267384;22;20024;-78
2021/07/13 04:45:36;;;;;;;0.80;0.77;;;;;;;17.73;83.20;91922.69;6247659;23;20012;-79
2021/07/13 04:48:02;;;;;;;0.40;0.40;;;;;;;17.75;82.94;91918.59;6243486;23;20000;-78
2021/07/13 04:50:28;;;;;;;0.32;0.32;;;;;;;17.73;83.93;91904.16;6245416;23;20016;-77
2021/07/13 04:52:54;;;;;;;1.05;0.57;;;;;;;17.74;83.27;91893.22;6245338;23;20376;-78
2021/07/13 04:55:19;;;;;;;1.15;0.70;;;;;;;17.78;82.81;91917.13;6246404;22;20016;-78
2021/07/13 04:57:45;;;;;;;2.33;0.90;;;;;;;17.77;82.82;91913.72;6246006;23;20046;-78
2021/07/13 05:00:12;;;;;;;0.20;0.20;;;;;;;17.80;82.76;91894.50;6245944;23;20022;-77
2021/07/13 05:02:39;;;;;;;0.52;0.50;;;;;;;17.77;83.16;91868.72;6244849;23;20012;-77
2021/07/13 05:05:06;;;;;;;0.40;0.40;;;;;;;17.80;83.17;91891.09;6219491;23;20043;-79
2021/07/13 05:07:32;;;;;;;1.13;1.00;;;;;;;17.78;84.17;91895.94;6245605;23;20006;-78
2021/07/13 05:09:58;;;;;;;0.38;0.38;;;;;;;17.71;83.34;91911.69;6194975;23;20043;-77
2021/07/13 05:12:24;;;;;;;0.60;0.60;;;;;;;17.60;83.22;91906.91;6245755;23;20114;-78
2021/07/13 05:14:49;;;;;;;0.55;0.55;;;;;;;17.52;83.97;91878.75;6244733;23;20024;-77
2021/07/13 05:17:15;;;;;;;0.38;0.38;;;;;;;17.49;83.30;91919.09;6245139;22;20012;-78
2021/07/13 05:19:44;;;;;;;0.43;0.43;;;;;;;17.46;84.06;91917.16;6243800;23;20011;-78
2021/07/13 05:22:10;;;;;;;0.73;0.60;;;;;;;17.41;83.84;91912.13;6243690;23;20061;-77
2021/07/13 05:24:36;;;;;;;0.90;0.55;;;;;;;17.36;84.02;91912.38;6220207;23;20050;-77
2021/07/13 05:27:02;;;;;;;0.20;0.20;;;;;;;17.33;84.32;91918.34;6220435;23;20004;-78
2021/07/13 05:29:28;;;;;;;0.35;0.35;;;;;;;17.30;84.62;91924.34;6246201;23;20028;-77
2021/07/13 05:31:53;;;;;;;1.10;0.77;;;;;;;17.27;81.54;91894.03;6245849;23;20012;-78
2021/07/13 05:34:19;;;;;;;0.60;0.52;;;;;;;17.33;81.72;91873.38;6246051;23;20051;-77
2021/07/13 05:36:45;;;;;;;1.00;0.82;;;;;;;17.25;84.33;91872.47;6246320;23;20008;-77
2021/07/13 05:39:10;;;;;;;0.50;0.50;;;;;;;17.25;85.02;91885.69;6247022;23;20090;-77
2021/07/13 05:41:36;;;;;;;1.40;0.80;;;;;;;17.23;85.10;91899.25;6217704;23;20027;-77
2021/07/13 05:44:06;;;;;;;0.30;0.30;;;;;;;17.23;84.98;91880.72;6244324;23;20069;-77
2021/07/13 05:46:32;;;;;;;0.77;0.77;;;;;;;17.25;84.67;91849.41;6245427;23;20019;-77
2021/07/13 05:48:58;;;;;;;2.90;0.82;;;;;;;17.29;84.16;91828.31;6243948;23;20024;-77
2021/07/13 05:51:23;;;;;;;0.30;0.30;;;;;;;17.39;82.65;91837.63;6245656;23;20000;-77
2021/07/13 05:53:49;;;;;;;0.50;0.47;;;;;;;17.45;82.89;91836.22;6246313;23;20022;-77
2021/07/13 05:56:14;;;;;;;1.15;0.75;;;;;;;17.52;83.58;91825.84;6221462;23;20024;-78
2021/07/13 05:58:40;;;;;;;0.30;0.30;;;;;;;17.59;83.62;91823.34;6222126;23;20458;-77
2021/07/13 06:01:06;;;;;;;0.50;0.50;;;;;;;17.74;80.14;91823.63;6249066;23;20035;-78
2021/07/13 06:03:33;;;;;;;0.90;0.55;;;;;;;18.13;76.43;91810.47;6222279;23;20092;-77
2021/07/13 06:05:59;;;;;;;0.65;0.52;;;;;;;19.47;69.42;91785.84;6222007;23;20456;-78
2021/07/13 06:08:25;;;;;;;0.63;0.50;;;;;;;19.54;67.46;91783.28;6272121;22;20016;-77
2021/07/13 06:10:51;;;;;;;0.68;0.57;;;;;;;19.28;68.56;91779.50;6247729;22;20016;-77
2021/07/13 06:13:16;;;;;;;0.73;0.65;;;;;;;19.74;68.05;91760.81;6249458;23;20004;-78
2021/07/13 06:15:42;;;;;;;0.25;0.25;;;;;;;19.30;67.87;91776.50;6246993;23;20016;-78
2021/07/13 06:18:08;;;;;;;0.75;0.68;;;;;;;19.01;69.41;91762.06;6249675;23;20347;-79
2021/07/13 06:20:35;;;;;;;0.38;0.38;;;;;;;18.91;71.76;91729.72;6248669;23;20444;-79
2021/07/13 06:23:01;;;;;;;0.80;0.63;;;;;;;18.89;71.20;91709.94;6247483;23;20011;-78
2021/07/13 06:25:27;;;;;;;0.35;0.35;;;;;;;18.87;69.22;91720.94;6248186;23;20003;-78
2021/07/13 06:27:52;;;;;;;0.55;0.55;;;;;;;18.68;70.72;91691.81;6249115;23;20012;-77
2021/07/13 06:30:18;;;;;;;0.75;0.75;;;;;;;18.42;72.74;91655.47;6246541;23;20030;-74
2021/07/13 06:32:45;;;;;;;0.93;0.70;;;;;;;18.59;70.49;91654.19;6243620;23;20030;-78
2021/07/13 06:35:11;;;;;;;1.00;0.60;;;;;;;18.62;70.28;91654.25;6217027;23;20024;-77
2021/07/13 06:37:37;;;;;;;0.47;0.47;;;;;;;18.59;69.11;91657.59;6244042;23;20079;-76
2021/07/13 06:40:05;;;;;;;1.75;0.90;;;;;;;18.46;69.85;91633.19;6243862;23;20376;-77
2021/07/13 06:42:30;;;;;;;0.43;0.43;;;;;;;18.49;69.75;91653.66;6244173;23;20019;-76
2021/07/13 06:44:56;;;;;;;1.65;1.10;;;;;;;18.33;71.21;91758.22;6242772;23;20004;-77
2021/07/13 06:47:22;;;;;;;0.30;0.30;;;;;;;17.98;78.36;91812.06;6243039;23;20012;-78
2021/07/13 06:49:47;;;;;;;0.75;0.52;;;;;;;17.80;79.79;91778.00;6242019;23;20020;-77
2021/07/13 06:52:13;;;;;;;0.80;0.68;;;;;;;17.61;81.75;91794.66;6244369;23;20547;-76
2021/07/13 06:54:38;;;;;;;0.55;0.55;;;;;;;17.28;82.96;91861.94;6244166;23;20050;-76
2021/07/13 06:57:04;;;;;;;0.20;0.20;;;;;;;17.02;84.02;91830.75;6242650;23;20016;-76
2021/07/13 06:59:30;;;;;;;0.38;0.38;;;;;;;16.89;84.23;91868.16;6192023;23;20020;-76
2021/07/13 07:01:56;;;;;;;0.55;0.45;;;;;;;16.89;83.81;91876.09;6242334;23;20000;-76
2021/07/13 07:04:22;;;;;;;0.65;0.47;;;;;;;16.82;83.53;91879.34;6267236;22;20027;-74
2021/07/13 07:06:48;;;;;;;1.08;0.80;;;;;;;16.91;84.09;91876.50;6191389;23;20016;-76
2021/07/13 07:09:13;;;;;;;1.20;0.85;;;;;;;16.87;84.55;91887.00;6268310;22;20020;-76
2021/07/13 07:11:39;;;;;;;0.50;0.50;;;;;;;16.97;83.10;91891.03;6242446;23;20138;-77
2021/07/13 07:14:05;;;;;;;0.40;0.40;;;;;;;17.03;83.67;91898.38;6244273;23;20004;-75
2021/07/13 07:16:30;;;;;;;0.30;0.30;;;;;;;17.16;82.25;91888.50;6242852;22;20090;-75
2021/07/13 07:18:56;;;;;;;0.32;0.32;;;;;;;17.26;81.95;91861.53;6242591;23;20121;-75
2021/07/13 07:21:22;;;;;;;0.40;0.40;;;;;;;17.60;77.89;91885.72;6243856;23;20008;-75
2021/07/13 07:23:47;;;;;;;0.65;0.65;;;;;;;17.51;80.45;91893.06;6243947;23;20016;-77
2021/07/13 07:26:14;;;;;;;1.13;0.85;;;;;;;17.31;80.91;91888.81;6243877;23;20042;-76
2021/07/13 07:28:40;;;;;;;0.73;0.55;;;;;;;17.22;81.82;91902.22;6243627;23;20012;-77
2021/07/13 07:31:06;;;;;;;0.40;0.40;;;;;;;17.30;80.15;91900.53;6243764;23;20098;-77
2021/07/13 07:33:32;;;;;;;0.52;0.52;;;;;;;17.41;80.49;91894.38;6216318;23;20047;-76
2021/07/13 07:35:58;;;;;;;0.60;0.60;;;;;;;17.47;79.74;91905.44;6216854;23;20102;-77
2021/07/13 07:38:24;;;;;;;0.82;0.82;;;;;;;17.45;80.44;91915.59;6268519;22;20004;-77
2021/07/13 07:40:49;;;;;;;1.25;1.15;;;;;;;17.47;81.00;91879.00;6242765;23;20138;-77
2021/07/13 07:43:15;;;;;;;0.75;0.75;;;;;;;17.46;81.16;91874.81;6192718;23;20016;-78
2021/07/13 07:45:41;;;;;;;0.75;0.75;;;;;;;17.45;81.40;91883.84;6244040;23;20087;-76
2021/07/13 07:48:06;;;;;;;0.45;0.38;;;;;;;17.42;83.30;91874.72;6243258;23;20012;-77
2021/07/13 07:50:32;;;;;;;0.98;0.60;;;;;;;17.33;84.75;91855.63;6216707;23;20020;-77
2021/07/13 07:52:58;;;;;;;0.88;0.57;;;;;;;17.23;85.28;91835.75;6242414;22;20470;-77
2021/07/13 07:55:26;;;;;;;1.00;0.70;;;;;;;17.15;85.77;91836.69;6243871;23;20522;-77
2021/07/13 07:57:53;;;;;;;0.65;0.60;;;;;;;17.13;85.85;91836.28;6243864;23;20004;-76
2021/07/13 08:00:20;;;;;;;1.35;0.63;;;;;;;17.13;86.17;91860.06;6243394;23;20008;-76
2021/07/13 08:02:46;;;;;;;1.05;0.88;;;;;;;17.10;85.85;91863.41;6242785;23;19999;-76
2021/07/13 08:05:14;;;;;;;0.65;0.35;;;;;;;16.91;87.23;91882.59;6244304;23;20459;-77
2021/07/13 08:07:41;;;;;;;0.93;0.77;;;;;;;16.85;87.45;91890.00;6242996;23;20015;-76
2021/07/13 08:10:08;;;;;;;0.35;0.30;;;;;;;16.89;85.69;91884.81;6216518;23;20024;-76
2021/07/13 08:12:35;;;;;;;0.70;0.57;;;;;;;16.92;87.21;91883.34;6242716;23;20069;-76
2021/07/13 08:15:00;;;;;;;4.13;0.70;;;;;;;16.94;87.14;91907.56;6216732;23;20012;-76
2021/07/13 08:17:26;;;;;;;0.30;0.30;;;;;;;17.42;79.83;91911.00;6241147;23;20015;-76
2021/07/13 08:19:52;;;;;;;0.40;0.40;;;;;;;17.46;80.31;91909.22;6242777;23;20363;-77
2021/07/13 08:22:18;;;;;;;0.68;0.68;;;;;;;17.56;78.41;91914.00;6242314;23;20339;-77
2021/07/13 08:24:43;;;;;;;1.60;1.25;;;;;;;17.56;79.34;91921.94;6242426;23;20016;-77
2021/07/13 08:27:09;;;;;;;0.30;0.30;;;;;;;17.44;80.48;91914.84;6245261;23;20012;-77
2021/07/13 08:29:36;;;;;;;0.60;0.57;;;;;;;17.49;79.74;91924.41;6244153;23;20019;-76
2021/07/13 08:32:02;;;;;;;0.30;0.30;;;;;;;17.51;80.83;91921.41;6239625;22;20031;-77
2021/07/13 08:34:31;;;;;;;0.38;0.38;;;;;;;17.62;78.10;91923.19;6267053;22;20027;-77
2021/07/13 08:36:57;;;;;;;0.82;0.73;;;;;;;17.72;78.87;91919.28;6241462;23;20016;-77
2021/07/13 08:39:24;;;;;;;0.60;0.60;;;;;;;18.10;78.26;91923.94;6241685;23;20016;-77
2021/07/13 08:41:50;;;;;;;0.40;0.40;;;;;;;18.83;79.95;91936.75;6243765;23;20019;-77
2021/07/13 08:44:16;;;;;;;0.47;0.47;;;;;;;19.41;74.95;91920.75;6244110;23;20403;-78
2021/07/13 08:46:43;;;;;;;1.02;0.68;;;;;;;19.73;74.56;91918.63;6216709;23;20007;-78
2021/07/13 08:49:11;;;;;;;0.52;0.50;;;;;;;19.58;72.94;91918.72;6219662;23;20092;-77
2021/07/13 08:51:38;;;;;;;0.35;0.35;;;;;;;19.67;74.58;91908.63;6242850;23;20047;-77
2021/07/13 08:54:04;;;;;;;0.82;0.75;;;;;;;19.73;78.14;91910.66;6242825;22;20020;-78
2021/07/13 08:56:35;;;;;;;0.85;0.63;;;;;;;19.62;77.84;91920.31;6245082;23;20008;-78
2021/07/13 08:59:01;;;;;;;1.10;0.88;;;;;;;19.43;77.22;91905.22;6216570;23;20027;-76
2021/07/13 09:01:27;;;;;;;0.90;0.65;;;;;;;19.25;78.04;91890.88;6242922;23;20050;-78
2021/07/13 09:04:06;;;;;;;1.10;1.00;;;;;;;19.01;78.99;91899.97;6240014;23;20048;-77
2021/07/13 09:06:57;;;;;;;1.50;1.05;;;;;;;18.79;79.61;91912.81;6240762;23;20054;-77
2021/07/13 09:09:34;;;;;;;1.38;0.88;;;;;;;18.79;80.09;91893.50;6240838;23;20023;-77
2021/07/13 09:12:06;;;;;;;0.70;0.52;;;;;;;18.80;80.03;91874.59;6241598;23;20058;-77
2021/07/13 09:15:05;;;;;;;1.40;0.77;;;;;;;18.70;79.86;91877.78;6242401;23;20012;-76
2021/07/13 09:17:35;;;;;;;0.50;0.43;;;;;;;18.61;78.76;91887.84;6179361;23;20027;-77
2021/07/13 09:20:08;;;;;;;0.52;0.47;;;;;;;18.58;79.27;91891.19;6215620;23;20094;-77
2021/07/13 09:22:36;;;;;;;2.15;0.68;;;;;;;18.44;81.98;91868.59;6240225;23;20486;-77
2021/07/13 09:25:40;;;;;;;0.55;0.55;;;;;;;18.39;81.98;91852.97;6239441;22;20498;-76
2021/07/13 09:28:16;;;;;;;1.45;1.08;;;;;;;18.33;79.92;91841.13;6242591;23;20036;-78
2021/07/13 09:30:48;;;;;;;0.55;0.52;;;;;;;18.12;81.15;91851.31;6244019;23;20050;-76
2021/07/13 09:33:24;;;;;;;1.27;1.00;;;;;;;18.22;80.88;91872.72;6244502;23;20020;-76
2021/07/13 09:36:01;;;;;;;0.40;0.40;;;;;;;18.27;79.06;91874.31;6248168;23;20257;-78
2021/07/13 09:38:28;;;;;;;0.50;0.50;;;;;;;18.31;78.03;91869.84;6249956;23;20028;-79
2021/07/13 09:41:07;;;;;;;1.02;0.77;;;;;;;18.30;78.13;91886.84;6274406;22;20047;-79
2021/07/13 09:43:52;;;;;;;0.77;0.47;;;;;;;18.42;75.64;91884.09;6248821;23;20008;-76
2021/07/13 09:46:24;;;;;;;0.70;0.68;;;;;;;18.46;75.97;91869.03;6248816;23;20008;-78
2021/07/13 09:49:18;;;;;;;0.90;0.65;;;;;;;18.52;75.36;91877.44;6218038;23;20090;-77
2021/07/13 09:51:45;;;;;;;0.13;0.13;;;;;;;18.52;75.86;91878.22;6218604;23;20074;-77
2021/07/13 09:54:34;;;;;;;0.25;0.22;;;;;;;18.38;75.88;91882.47;6247444;23;20012;-78
2021/07/13 09:57:05;;;;;;;0.45;0.45;;;;;;;18.34;75.91;91866.50;6248185;23;20012;-77
2021/07/13 09:59:31;;;;;;;1.02;0.85;;;;;;;18.22;76.54;91871.94;6220354;23;20012;-78
2021/07/13 10:01:57;;;;;;;0.50;0.50;;;;;;;18.34;77.49;91869.16;6247686;23;20384;-77
2021/07/13 10:04:23;;;;;;;0.43;0.43;;;;;;;18.44;77.27;91865.16;6244723;23;20016;-77
2021/07/13 10:06:53;;;;;;;0.50;0.50;;;;;;;18.50;76.42;91867.19;6242707;23;20023;-77
2021/07/13 10:09:22;;;;;;;0.47;0.47;;;;;;;18.47;76.18;91861.84;6244529;23;20016;-77
2021/07/13 10:11:47;;;;;;;0.40;0.40;;;;;;;18.42;76.44;91851.53;6246105;23;20060;-77
2021/07/13 10:14:13;;;;;;;0.73;0.60;;;;;;;18.48;76.25;91844.81;6223251;23;20020;-78
2021/07/13 10:16:39;;;;;;;0.80;0.63;;;;;;;18.54;76.61;91829.41;6222575;23;20016;-79
2021/07/13 10:19:07;;;;;;;0.73;0.73;;;;;;;18.68;77.62;91837.59;6197943;23;20026;-78
2021/07/13 10:21:34;;;;;;;0.43;0.40;;;;;;;18.77;75.85;91821.47;6247087;23;20438;-78
2021/07/13 10:24:01;;;;;;;0.40;0.40;;;;;;;18.93;75.49;91822.91;6246802;23;20016;-78
2021/07/13 10:26:52;;;;;;;1.30;0.82;;;;;;;18.98;75.23;91803.31;6245838;23;20012;-79
2021/07/13 10:29:33;;;;;;;0.40;0.40;;;;;;;19.16;73.80;91800.16;6243465;23;20051;-76
2021/07/13 10:32:00;;;;;;;0.43;0.35;;;;;;;19.16;75.17;91806.22;6244737;23;20039;-77
2021/07/13 10:34:51;;;;;;;0.25;0.25;;;;;;;19.11;76.89;91803.88;6243590;23;20337;-77
2021/07/13 10:37:26;;;;;;;0.60;0.55;;;;;;;19.01;74.06;91799.94;6245006;23;20032;-79
2021/07/13 10:39:54;;;;;;;1.08;0.85;;;;;;;18.88;74.41;91804.66;6251335;23;20015;-78
2021/07/13 10:42:47;;;;;;;0.22;0.22;;;;;;;18.95;74.51;91811.19;6250672;23;20349;-79
2021/07/13 10:45:22;;;;;;;0.95;0.82;;;;;;;18.87;75.26;91799.72;6271192;22;20088;-78
2021/07/13 10:48:19;;;;;;;0.65;0.55;;;;;;;18.86;73.21;91785.69;6251272;23;20063;-77
2021/07/13 10:50:52;;;;;;;0.75;0.70;;;;;;;18.83;74.39;91789.03;6250748;23;20431;-78
2021/07/13 10:53:22;;;;;;;0.75;0.50;;;;;;;18.95;74.35;91776.72;6250673;23;20015;-78
2021/07/13 10:55:55;;;;;;;0.57;0.40;;;;;;;18.96;75.13;91781.69;6250164;23;20363;-78
2021/07/13 10:58:37;;;;;;;0.50;0.50;;;;;;;18.92;73.62;91771.00;6252197;23;20023;-78
2021/07/13 11:01:03;;;;;;;0.55;0.50;;;;;;;18.88;74.20;91762.22;6251158;23;20012;-78
2021/07/13 11:03:31;;;;;;;0.38;0.38;;;;;;;18.83;73.57;91746.63;6274843;22;20097;-78
2021/07/13 11:05:58;;;;;;;0.38;0.38;;;;;;;18.79;72.13;91751.09;6251182;23;20016;-78
2021/07/13 11:08:44;;;;;;;0.30;0.30;;;;;;;18.77;71.72;91755.97;6250920;23;20447;-77
2021/07/13 11:11:15;;;;;;;0.52;0.50;;;;;;;18.60;72.46;91761.72;6249064;23;20016;-78
2021/07/13 11:13:43;;;;;;;0.30;0.30;;;;;;;18.59;72.07;91758.31;6222369;23;20018;-78
2021/07/13 11:16:09;;;;;;;0.40;0.40;;;;;;;18.60;72.71;91735.22;6247359;23;20250;-77
2021/07/13 11:18:37;;;;;;;0.20;0.20;;;;;;;18.57;72.54;91743.88;6272011;22;20036;-78
2021/07/13 11:21:24;;;;;;;0.30;0.30;;;;;;;18.45;72.86;91748.25;6248037;23;20056;-78
2021/07/13 11:24:08;;;;;;;0.60;0.52;;;;;;;18.31;73.43;91754.06;6221250;23;20020;-78
2021/07/13 11:26:37;;;;;;;0.38;0.38;;;;;;;18.34;73.61;91743.88;6248142;23;20016;-77
2021/07/13 11:29:05;;;;;;;0.30;0.30;;;;;;;18.38;72.78;91745.47;6244300;23;20341;-76
2021/07/13 11:31:36;;;;;;;0.20;0.20;;;;;;;18.35;74.32;91754.13;6242042;22;20329;-76
2021/07/13 11:34:09;;;;;;;0.20;0.20;;;;;;;18.32;74.90;91762.75;6243939;23;20458;-76
2021/07/13 11:36:43;;;;;;;0.57;0.47;;;;;;;18.30;73.79;91762.34;6243826;23;20012;-76
2021/07/13 11:39:11;;;;;;;1.20;0.50;;;;;;;18.39;74.09;91794.69;6216854;23;20026;-75
2021/07/13 11:41:37;;;;;;;0.30;0.30;;;;;;;18.30;74.65;91826.69;6267629;22;20012;-76
2021/07/13 11:44:06;;;;;;;0.70;0.55;;;;;;;18.40;73.41;91822.72;6192290;23;20016;-76
2021/07/13 11:46:34;;;;;;;0.28;0.28;;;;;;;18.54;71.41;91798.38;6243844;23;20012;-76
2021/07/13 11:49:02;;;;;;;0.38;0.38;;;;;;;18.70;71.63;91790.31;6242359;23;20016;-76
2021/07/13 11:51:35;;;;;;;0.35;0.35;;;;;;;18.91;70.67;91763.41;6243543;23;20087;-77
2021/07/13 11:54:04;;;;;;;0.50;0.50;;;;;;;19.06;70.16;91753.78;6243841;23;20038;-76
2021/07/13 11:56:31;;;;;;;0.30;0.30;;;;;;;19.13;68.51;91770.56;6243811;23;20066;-77
2021/07/13 11:58:58;;;;;;;0.50;0.50;;;;;;;19.13;68.02;91756.53;6243703;23;20144;-77
2021/07/13 12:01:26;;;;;;;0.57;0.57;;;;;;;19.20;67.92;91761.94;6242106;23;20020;-77
2021/07/13 12:03:53;;;;;;;0.40;0.40;;;;;;;19.39;66.84;91765.66;6267699;22;20087;-76
2021/07/13 12:06:22;;;;;;;0.30;0.30;;;;;;;19.70;66.61;91749.41;6244221;23;20008;-76
2021/07/13 12:09:02;;;;;;;0.40;0.40;;;;;;;19.90;65.17;91755.31;6243626;23;20043;-77
2021/07/13 12:11:31;;;;;;;0.17;0.17;;;;;;;19.89;64.62;91768.97;6243580;23;20011;-77
2021/07/13 12:13:58;;;;;;;0.20;0.20;;;;;;;19.79;64.63;91778.31;6243829;23;20035;-77
2021/07/13 12:16:29;;;;;;;0.35;0.30;;;;;;;19.76;64.37;91774.50;6242500;23;20536;-77
2021/07/13 12:18:57;;;;;;;0.10;0.10;;;;;;;19.65;64.04;91762.94;6267584;22;20034;-77
2021/07/13 12:21:23;;;;;;;0.50;0.50;;;;;;;19.52;64.74;91769.59;6241974;23;20444;-78
2021/07/13 12:23:50;;;;;;;0.35;0.32;;;;;;;19.27;65.59;91748.81;6218039;23;20466;-78
2021/07/13 12:26:23;;;;;;;0.20;0.20;;;;;;;19.27;65.84;91762.06;6244281;22;20012;-77
2021/07/13 12:29:14;;;;;;;0.65;0.63;;;;;;;19.21;66.75;91749.47;6245579;23;20084;-78
2021/07/13 12:31:43;;;;;;;0.30;0.30;;;;;;;19.17;66.70;91743.34;6245293;23;20494;-77
2021/07/13 12:34:18;;;;;;;0.85;0.60;;;;;;;19.07;66.18;91750.00;6267349;22;20016;-77
2021/07/13 12:36:45;;;;;;;0.22;0.22;;;;;;;19.02;66.81;91743.13;6243604;23;20015;-77
2021/07/13 12:39:21;;;;;;;0.40;0.40;;;;;;;19.04;66.44;91745.41;6220712;23;20008;-78
2021/07/13 12:41:57;;;;;;;0.50;0.40;;;;;;;19.25;64.82;91745.75;6245022;23;20008;-78
2021/07/13 12:44:29;;;;;;;0.28;0.28;;;;;;;19.25;64.61;91753.69;6243296;23;20019;-78
2021/07/13 12:47:13;;;;;;;0.30;0.30;;;;;;;19.48;64.78;91758.94;6245319;23;20015;-78
2021/07/13 12:49:38;;;;;;;0.40;0.30;;;;;;;19.55;63.88;91755.63;6246720;23;20066;-78
2021/07/13 12:52:12;;;;;;;2.83;0.70;;;;;;;19.57;64.08;91761.34;6247349;23;20000;-78
2021/07/13 12:55:00;;;;;;;0.20;0.20;;;;;;;19.56;62.82;91770.41;6246883;23;20023;-78
2021/07/13 12:57:46;;;;;;;0.17;0.17;;;;;;;19.40;62.81;91770.56;6248294;23;20055;-78
2021/07/13 13:00:18;;;;;;;0.40;0.40;;;;;;;19.41;62.40;91763.38;6247065;23;20027;-78
2021/07/13 13:03:01;;;;;;;;;;;;;;;19.37;63.74;91759.94;6248013;23;20043;-78
2021/07/13 13:05:29;;;;;;;0.25;0.25;;;;;;;19.06;66.22;91780.31;6249247;23;20289;-78
2021/07/13 13:08:04;;;;;;;0.25;0.25;;;;;;;18.61;70.55;91765.91;6248125;23;20348;-78
2021/07/13 13:10:34;;;;;;;0.10;0.10;;;;;;;18.52;70.75;91766.91;6249519;22;20021;-78
2021/07/13 13:13:00;;;;;;;0.43;0.43;;;;;;;18.61;69.35;91784.47;6249562;23;20436;-79
2021/07/13 13:15:27;;;;;;;0.50;0.40;;;;;;;18.73;70.06;91798.34;6246855;23;20047;-78
2021/07/13 13:17:53;;;;;;;0.68;0.50;;;;;;;19.00;70.01;91813.53;6222939;23;20008;-78
2021/07/13 13:20:19;;;;;;;0.50;0.50;;;;;;;19.16;70.05;91810.75;6248488;22;20392;-78
2021/07/13 13:22:50;;;;;;;0.52;0.52;;;;;;;19.50;67.33;91787.78;6248142;23;20016;-78
2021/07/13 13:25:17;;;;;;;0.30;0.30;;;;;;;20.30;65.81;91793.75;6248855;23;20019;-78
2021/07/13 13:27:42;;;;;;;0.40;0.40;;;;;;;20.23;62.20;91779.63;6274599;22;20008;-78
2021/07/13 13:30:13;;;;;;;0.30;0.30;;;;;;;20.10;62.75;91792.38;6250504;23;20424;-78
2021/07/13 13:32:40;;;;;;;0.40;0.40;;;;;;;20.13;61.66;91797.72;6248612;23;20451;-78
2021/07/13 13:35:07;;;;;;;0.17;0.17;;;;;;;20.10;60.45;91795.78;6275195;22;20020;-78
2021/07/13 13:37:48;;;;;;;0.20;0.20;;;;;;;20.34;62.22;91802.53;6250087;22;20020;-78
2021/07/13 13:40:14;;;;;;;0.28;0.28;;;;;;;20.27;61.95;91818.38;6250748;23;20023;-78
2021/07/13 13:42:40;;;;;;;0.47;0.38;;;;;;;20.39;60.08;91804.09;6250307;22;20012;-78
2021/07/13 13:45:07;;;;;;;0.63;0.47;;;;;;;20.38;61.71;91806.00;6224819;23;20004;-78
2021/07/13 13:47:33;;;;;;;0.47;0.32;;;;;;;20.33;59.40;91802.88;6223382;23;20182;-78
2021/07/13 13:49:59;;;;;;;0.57;0.28;;;;;;;20.24;59.45;91791.75;6224477;23;20518;-78
2021/07/13 13:52:25;;;;;;;2.88;1.23;;;;;;;20.09;60.36;91773.00;6249344;23;20031;-78
2021/07/13 13:54:50;;;;;;;0.20;0.20;;;;;;;19.85;61.27;91770.81;6198486;23;20050;-78
2021/07/13 13:57:16;;;;;;;0.32;0.32;;;;;;;19.82;61.74;91766.25;6273179;22;20071;-78
2021/07/13 13:59:42;;;;;;;0.20;0.20;;;;;;;19.64;62.97;91761.44;6248099;23;20086;-78
2021/07/13 14:02:07;;;;;;;0.20;0.20;;;;;;;19.55;61.22;91752.97;6246279;23;20039;-78
2021/07/13 14:04:34;;;;;;;1.00;0.90;;;;;;;19.50;61.74;91750.63;6246407;22;20047;-78
2021/07/13 14:07:00;;;;;;;0.82;0.60;;;;;;;19.44;61.11;91744.09;6247588;23;20006;-79
2021/07/13 14:09:26;;;;;;;0.40;0.40;;;;;;;19.34;60.87;91734.84;6275002;22;20068;-78
2021/07/13 14:11:53;;;;;;;0.30;0.30;;;;;;;19.45;62.00;91721.72;6248779;23;20436;-78
2021/07/13 14:14:20;;;;;;;0.22;0.22;;;;;;;19.58;61.21;91724.94;6249716;23;20016;-78
2021/07/13 14:16:47;;;;;;;9.02;0.57;;;;;;;19.70;60.88;91722.84;6221791;23;20066;-78
2021/07/13 14:19:12;;;;;;;0.22;0.22;;;;;;;19.88;61.19;91723.06;6222867;23;20012;-78
2021/07/13 14:21:39;;;;;;;0.30;0.30;;;;;;;20.02;60.88;91711.84;6247343;23;20497;-77
2021/07/13 14:24:05;;;;;;;0.40;0.40;;;;;;;19.95;58.96;91709.88;6247002;23;20016;-78
2021/07/13 14:26:31;;;;;;;0.52;0.40;;;;;;;19.74;59.10;91717.56;6272869;22;20150;-78
2021/07/13 14:28:56;;;;;;;1.05;0.82;;;;;;;19.65;60.10;91720.47;6248762;23;20020;-78
2021/07/13 14:31:22;;;;;;;0.40;0.40;;;;;;;19.55;60.30;91705.94;6245018;23;20038;-77
2021/07/13 14:33:48;;;;;;;0.20;0.20;;;;;;;19.58;60.22;91703.69;6244189;23;20016;-77
2021/07/13 14:36:14;;;;;;;0.52;0.52;;;;;;;19.70;59.94;91695.53;6192997;23;20048;-77
2021/07/13 14:38:40;;;;;;;0.30;0.30;;;;;;;20.23;59.44;91683.97;6270231;22;20107;-78
2021/07/13 14:41:06;;;;;;;0.63;0.63;;;;;;;20.64;56.91;91719.28;6220011;23;20130;-78
2021/07/13 14:43:32;;;;;;;0.75;0.60;;;;;;;20.88;57.03;91725.94;6244948;23;20016;-76
2021/07/13 14:45:59;;;;;;;0.43;0.43;;;;;;;20.70;57.21;91731.13;6245348;23;20020;-78
2021/07/13 14:48:24;;;;;;;0.20;0.20;;;;;;;20.72;57.37;91728.88;6249079;23;20000;-79
2021/07/13 14:50:50;;;;;;;0.20;0.20;;;;;;;20.67;58.19;91729.22;6248682;23;20020;-79
2021/07/13 14:53:19;;;;;;;0.22;0.22;;;;;;;20.65;57.65;91742.09;6249079;22;20012;-78
2021/07/13 14:55:52;;;;;;;0.43;0.43;;;;;;;20.75;58.86;91743.31;6274061;22;20019;-79
2021/07/13 14:58:18;;;;;;;0.77;0.68;;;;;;;20.76;58.71;91736.84;6275838;22;20026;-79
2021/07/13 15:00:47;;;;;;;0.55;0.50;;;;;;;20.75;58.87;91735.34;6251779;23;20004;-79
2021/07/13 15:03:14;;;;;;;0.30;0.30;;;;;;;20.68;60.11;91727.31;6225068;23;20022;-79
2021/07/13 15:05:41;;;;;;;0.15;0.15;;;;;;;20.57;60.66;91722.66;6249577;22;20397;-78
2021/07/13 15:08:26;;;;;;;0.30;0.30;;;;;;;20.33;59.13;91720.50;6224235;23;20084;-78
2021/07/13 15:10:53;;;;;;;0.35;0.35;;;;;;;19.79;58.78;91709.28;6251540;23;20020;-78
2021/07/13 15:13:21;;;;;;;0.38;0.38;;;;;;;19.86;59.46;91704.06;6250979;23;20016;-78
2021/07/13 15:15:47;;;;;;;0.88;0.65;;;;;;;19.69;57.41;91705.38;6249486;23;20074;-78